Pagrindinis puslapis
METAR-TAF:

METAR-TAF

Oro uostai :

Chevak, Aliaska, Jungtinės Amerikos Valstijos

platuma: 61-32-27N, ilguma: 165-36-03W, Aukštis: 23 m

Dabartinis oras

Ataskaita buvo paskelbta 11 minutes, ne 22:56 UTC
Vėjas 13 kt iš Rytų/Šiaurės Rytų
Temperatūra 9°C
Drėgmė 66%
Slėgis 1003 hPa
Matomumas: 16.1 km
Apsiniaukę ne aukštis 3400 ft

METAR: PAVA 202256Z AUTO 07013KT 10SM OVC034 09/03 A2962 RMK AO2 SLP033 T00890028 PNO $

Laikas: 15:07 (23:07 UTC)


TAF: trūkstamas

Orai ataskaitas ir orų prognozės (METAR, TAF).

turimą stotys yra geltonos ir raudonos taškus žemėlapyje.

Perkelti pele per norėdami pamatyti stoties vardą.

Tada spustelėkite, norėdami matyti oro stebėjimo ir prognozės.

Norėdami pakeisti žemėlapį: spustelėkite ant žalios mygtukų su juodo kryžiaus žemyn,; žalią mygtuką su brūkšneliu, jei norite nutolinti; arba žalių rodyklių gretimoms žemėlapius.


METAR-TAF: